Time;durP1;ratioP1;P1;durP2;ratioP2;P2;SDS_P1;SDS_P2;PMS_P1;PMS_P2;Temp;Humidity;BMP_temperature;BMP_pressure;BME280_temperature;BME280_humidity;BME280_pressure;Samples;Min_cycle;Max_cycle;Signal;HPM_P1;HPM_P2
2022/05/29 00:00:43;;;;;;;4.00;2.07;;;;;;;18.23;63.73;101072.66;2114995;28;20715;-68
2022/05/29 00:01:43;;;;;;;2.97;2.00;;;;;;;17.95;63.97;101048.75;2114816;28;20840;-68
2022/05/29 00:02:44;;;;;;;2.87;1.80;;;;;;;18.24;64.07;101082.63;2114830;28;20182;-68
2022/05/29 00:03:44;;;;;;;2.47;1.90;;;;;;;17.87;64.15;101024.31;2114671;28;20166;-68
2022/05/29 00:04:45;;;;;;;3.47;2.00;;;;;;;18.15;63.75;101057.41;2114813;28;20590;-68
2022/05/29 00:05:48;;;;;;;5.03;2.07;;;;;;;18.08;63.67;101061.31;2114813;28;20730;-68
2022/05/29 00:06:51;;;;;;;2.50;1.80;;;;;;;17.07;63.74;100935.13;2114712;28;20227;-68
2022/05/29 00:07:52;;;;;;;3.83;1.83;;;;;;;17.30;64.13;100998.09;2114666;28;20447;-68
2022/05/29 00:08:52;;;;;;;3.40;1.80;;;;;;;17.60;64.36;101066.44;2114714;28;20473;-67
2022/05/29 00:09:53;;;;;;;4.23;2.10;;;;;;;17.52;64.67;101065.19;2114626;28;20178;-67
2022/05/29 00:10:54;;;;;;;4.03;1.90;;;;;;;17.41;64.68;101070.50;2114642;28;20190;-68
2022/05/29 00:11:55;;;;;;;5.10;1.97;;;;;;;17.33;65.17;101068.00;2114680;28;20203;-67
2022/05/29 00:12:55;;;;;;;3.87;2.00;;;;;;;17.23;65.63;101068.47;2114696;28;20419;-68
2022/05/29 00:14:00;;;;;;;2.50;1.93;;;;;;;17.22;65.57;101078.13;2114141;28;20171;-67
2022/05/29 00:15:02;;;;;;;3.03;2.00;;;;;;;17.14;65.92;101083.25;2114761;28;20231;-67
2022/05/29 00:16:03;;;;;;;3.73;2.23;;;;;;;17.13;65.89;101078.91;2114705;28;20407;-68
2022/05/29 00:17:04;;;;;;;2.30;2.07;;;;;;;17.07;65.88;101068.78;2105494;28;20443;-67
2022/05/29 00:18:07;;;;;;;4.80;2.27;;;;;;;17.06;66.44;101065.19;2105763;28;20475;-67
2022/05/29 00:19:07;;;;;;;4.47;2.07;;;;;;;17.02;66.38;101064.59;2114653;28;20913;-67
2022/05/29 00:20:08;;;;;;;4.73;2.20;;;;;;;16.95;66.36;101062.06;2114524;28;20785;-67
2022/05/29 00:21:09;;;;;;;3.17;2.27;;;;;;;16.92;66.58;101062.22;2114430;28;20659;-67
2022/05/29 00:22:14;;;;;;;3.67;2.43;;;;;;;16.87;67.01;101057.25;2105625;28;20721;-67
2022/05/29 00:23:15;;;;;;;4.47;2.40;;;;;;;16.42;66.72;100996.41;2106332;28;20178;-67
2022/05/29 00:24:15;;;;;;;4.03;2.57;;;;;;;16.81;66.91;101059.09;2114609;28;20446;-68
2022/05/29 00:25:16;;;;;;;3.23;2.40;;;;;;;16.58;67.15;101028.13;2114433;28;20170;-67
2022/05/29 00:26:17;;;;;;;2.60;2.37;;;;;;;16.74;67.59;101053.78;2114631;28;20186;-67
2022/05/29 00:27:18;;;;;;;5.07;2.30;;;;;;;16.74;67.51;101057.38;2114663;28;20552;-67
2022/05/29 00:28:20;;;;;;;4.60;2.40;;;;;;;16.76;67.97;101057.69;2114675;28;20798;-68
2022/05/29 00:29:22;;;;;;;3.97;2.40;;;;;;;16.80;67.74;101063.16;2114717;28;20426;-68
2022/05/29 00:30:22;;;;;;;3.70;2.50;;;;;;;16.80;67.74;101057.56;2114597;28;20811;-68
2022/05/29 00:31:23;;;;;;;5.17;2.10;;;;;;;15.89;67.42;100911.09;2114409;28;20463;-68
2022/05/29 00:32:23;;;;;;;3.57;2.20;;;;;;;16.84;67.66;101056.16;2105668;28;20186;-67
2022/05/29 00:33:24;;;;;;;3.87;2.40;;;;;;;16.79;67.33;101042.78;2106945;28;20182;-68
2022/05/29 00:34:24;;;;;;;4.60;2.57;;;;;;;16.78;67.67;101044.03;2116330;28;20198;-68
2022/05/29 00:35:25;;;;;;;3.73;2.40;;;;;;;16.73;67.64;101032.66;2116112;28;20216;-68
2022/05/29 00:36:28;;;;;;;5.77;2.73;;;;;;;16.47;67.79;100994.22;2107254;28;20186;-68
2022/05/29 00:37:34;;;;;;;5.30;3.03;;;;;;;16.67;67.45;101026.13;2107686;28;20271;-68
2022/05/29 00:38:38;;;;;;;2.83;2.60;;;;;;;16.57;67.93;101012.59;2116344;28;20449;-68
2022/05/29 00:39:40;;;;;;;6.70;2.90;;;;;;;16.56;67.78;101025.78;2116346;28;20408;-68
2022/05/29 00:41:17;;;;;;;7.00;2.80;;;;;;;16.58;67.58;101015.69;2116194;28;20416;-68
2022/05/29 00:42:22;;;;;;;4.03;2.80;;;;;;;16.52;67.95;101016.00;2099076;28;20428;-68
2022/05/29 00:43:23;;;;;;;4.20;2.93;;;;;;;16.40;67.72;101012.09;2116002;28;20458;-67
2022/05/29 00:44:31;;;;;;;3.13;2.70;;;;;;;16.43;68.14;101006.34;2116228;28;20477;-67
2022/05/29 00:45:44;;;;;;;4.00;2.77;;;;;;;16.42;67.78;101006.78;2116095;28;20205;-68
2022/05/29 00:46:50;;;;;;;3.87;3.00;;;;;;;16.38;68.04;101001.31;2116298;28;20500;-68
2022/05/29 00:47:52;;;;;;;9.13;2.80;;;;;;;16.33;68.37;100995.53;2116304;28;20418;-68
2022/05/29 00:48:52;;;;;;;3.50;3.00;;;;;;;16.33;67.92;101004.72;2116268;28;20802;-68
2022/05/29 00:49:53;;;;;;;5.30;3.03;;;;;;;16.30;67.84;100999.28;2116257;28;20559;-68
2022/05/29 00:50:57;;;;;;;6.83;2.90;;;;;;;16.26;67.92;100987.47;2116241;28;20170;-67
2022/05/29 00:52:06;;;;;;;5.13;3.10;;;;;;;16.26;68.08;100984.66;2116220;28;20178;-68
2022/05/29 00:53:06;;;;;;;4.07;3.27;;;;;;;16.20;68.34;100992.91;2116332;28;20416;-68
2022/05/29 00:54:07;;;;;;;7.43;3.30;;;;;;;16.24;68.62;100987.91;2116077;28;20478;-68
2022/05/29 00:55:17;;;;;;;5.03;3.23;;;;;;;16.16;68.53;100969.09;2116250;28;20237;-68
2022/05/29 00:56:17;;;;;;;4.63;2.90;;;;;;;16.34;68.59;100997.88;2116172;28;20410;-68
2022/05/29 00:57:24;;;;;;;4.00;3.03;;;;;;;16.37;68.77;100993.38;2116232;28;20416;-68
2022/05/29 00:58:25;;;;;;;5.60;3.27;;;;;;;16.37;68.55;100991.38;2116323;28;20165;-68
2022/05/29 00:59:29;;;;;;;8.10;2.93;;;;;;;15.99;68.82;100937.06;2116199;28;20907;-68
2022/05/29 01:00:31;;;;;;;5.47;3.27;;;;;;;16.37;68.46;100991.38;2116156;28;20427;-68
2022/05/29 01:01:32;;;;;;;4.93;3.37;;;;;;;16.31;68.40;100986.84;2116094;28;20419;-68
2022/05/29 01:02:32;;;;;;;6.37;3.20;;;;;;;16.39;68.86;100999.34;2116121;28;20416;-68
2022/05/29 01:03:33;;;;;;;7.03;3.27;;;;;;;15.68;68.64;100889.59;2116003;28;20179;-68
2022/05/29 01:04:36;;;;;;;5.47;3.40;;;;;;;15.86;68.96;100916.84;2116155;28;20171;-68
2022/05/29 01:05:37;;;;;;;9.10;3.40;;;;;;;16.52;68.78;101013.97;2116160;28;20205;-68
2022/05/29 01:06:38;;;;;;;5.83;3.20;;;;;;;16.59;68.82;101020.03;2116253;28;20939;-68
2022/05/29 01:07:43;;;;;;;5.83;3.37;;;;;;;16.68;68.98;101033.25;2116196;28;20179;-68
2022/05/29 01:08:44;;;;;;;4.37;3.30;;;;;;;16.72;69.13;101014.31;2116326;28;20799;-68
2022/05/29 01:09:46;;;;;;;7.87;3.10;;;;;;;16.75;68.90;101013.38;2116180;28;20522;-68
2022/05/29 01:10:50;;;;;;;5.77;3.63;;;;;;;16.81;68.74;101019.91;2116058;28;20180;-68
2022/05/29 01:12:07;;;;;;;5.30;3.57;;;;;;;16.89;68.75;101019.16;2116004;28;20482;-68
2022/05/29 01:13:23;;;;;;;5.53;3.27;;;;;;;17.00;68.78;101018.69;2116294;28;20409;-68
2022/05/29 01:15:03;;;;;;;4.37;3.07;;;;;;;17.05;68.72;101018.84;2116138;28;20878;-68
2022/05/29 01:16:16;;;;;;;5.13;3.20;;;;;;;17.10;67.88;101012.59;2116215;28;20399;-68
2022/05/29 01:17:42;;;;;;;6.87;3.13;;;;;;;17.16;68.17;101005.13;2107003;28;20453;-68
2022/05/29 01:18:50;;;;;;;5.27;3.27;;;;;;;17.15;67.72;100994.38;2110990;28;20454;-68
2022/05/29 01:20:15;;;;;;;4.33;2.93;;;;;;;17.17;67.67;100995.47;2116132;28;20763;-68
2022/05/29 01:21:37;;;;;;;6.20;3.60;;;;;;;17.16;68.03;100979.94;2115787;28;20449;-68
2022/05/29 01:22:59;;;;;;;6.43;3.10;;;;;;;17.21;68.05;100975.75;2116020;28;20424;-68
2022/05/29 01:24:38;;;;;;;7.00;3.40;;;;;;;16.85;67.53;100933.78;2116064;28;20934;-68
2022/05/29 01:25:57;;;;;;;3.97;3.10;;;;;;;17.14;67.96;100971.22;2073563;28;20431;-68
2022/05/29 01:27:19;;;;;;;6.50;3.40;;;;;;;17.17;67.61;100980.72;2087529;28;20420;-68
2022/05/29 01:28:50;;;;;;;5.07;3.40;;;;;;;17.17;67.51;100978.69;2115852;28;20902;-68
2022/05/29 01:29:53;;;;;;;3.87;3.00;;;;;;;17.20;67.05;100971.34;2116266;28;20454;-68
2022/05/29 01:31:03;;;;;;;5.27;2.70;;;;;;;17.21;66.63;100972.94;2115978;28;20937;-68
2022/05/29 01:32:16;;;;;;;7.40;2.80;;;;;;;17.23;66.15;100973.22;2116057;28;20406;-68
2022/05/29 01:33:29;;;;;;;4.43;2.87;;;;;;;17.21;65.75;100973.69;2115995;28;20420;-68
2022/05/29 01:34:49;;;;;;;4.87;2.90;;;;;;;17.24;65.07;100966.38;2116058;28;20418;-68
2022/05/29 01:36:24;;;;;;;6.07;2.67;;;;;;;16.66;64.84;100879.81;2115919;28;20483;-68
2022/05/29 01:37:37;;;;;;;6.70;3.00;;;;;;;17.21;64.93;100962.50;2081759;28;20517;-68
2022/05/29 01:38:40;;;;;;;3.40;2.80;;;;;;;17.20;64.92;100960.94;2084616;28;20435;-68
2022/05/29 01:39:48;;;;;;;4.50;2.77;;;;;;;17.25;64.58;100963.13;2106766;28;20455;-68
2022/05/29 01:40:55;;;;;;;4.90;2.93;;;;;;;17.21;64.54;100962.50;2108149;28;20910;-68
2022/05/29 01:42:28;;;;;;;3.73;2.90;;;;;;;17.18;64.36;100960.66;2115873;28;20899;-68
2022/05/29 01:43:40;;;;;;;3.90;3.30;;;;;;;17.14;64.04;100948.03;2111254;28;20444;-68
2022/05/29 01:44:43;;;;;;;3.07;2.77;;;;;;;17.16;64.03;100939.97;2115923;28;20482;-68
2022/05/29 01:45:57;;;;;;;6.17;3.37;;;;;;;17.21;64.49;100947.72;2115870;28;20441;-68
2022/05/29 01:47:09;;;;;;;5.67;3.10;;;;;;;17.25;64.88;100953.94;2115850;28;20890;-68
2022/05/29 01:48:18;;;;;;;4.30;3.10;;;;;;;16.70;64.99;100869.25;2115882;28;20425;-68
2022/05/29 01:49:50;;;;;;;6.93;2.90;;;;;;;17.30;64.95;100970.09;2115887;28;20506;-68
2022/05/29 01:50:57;;;;;;;5.40;3.33;;;;;;;17.30;65.02;100968.09;2114626;28;20940;-68
2022/05/29 01:52:09;;;;;;;5.40;3.20;;;;;;;17.30;64.92;100962.50;2115806;28;20995;-68
2022/05/29 01:53:31;;;;;;;4.50;3.20;;;;;;;17.30;65.34;100970.88;2115813;28;20412;-68
2022/05/29 01:54:50;;;;;;;3.43;2.97;;;;;;;17.30;65.26;100970.88;2115783;28;20444;-68
2022/05/29 01:55:55;;;;;;;4.90;3.10;;;;;;;17.33;65.37;100977.56;2115850;28;20780;-68
2022/05/29 01:57:05;;;;;;;4.00;3.10;;;;;;;17.33;65.42;100974.78;2115752;28;20415;-68
2022/05/29 01:58:14;;;;;;;3.80;3.17;;;;;;;17.35;65.41;100980.66;2115804;28;20812;-68
2022/05/29 01:59:33;;;;;;;6.87;3.23;;;;;;;17.36;65.37;100976.66;2115738;28;20467;-68
2022/05/29 02:00:34;;;;;;;7.57;3.70;;;;;;;17.35;65.49;100975.06;2115794;28;20404;-68
2022/05/29 02:01:40;;;;;;;6.27;3.60;;;;;;;17.34;65.20;100982.72;2115770;28;20503;-68
2022/05/29 02:03:13;;;;;;;5.37;3.50;;;;;;;17.28;65.01;100967.78;2115766;28;20158;-68
2022/05/29 02:04:20;;;;;;;3.67;3.30;;;;;;;17.25;64.57;100951.91;2110511;28;20435;-68
2022/05/29 02:05:25;;;;;;;5.30;3.60;;;;;;;17.20;64.82;100943.34;2115896;28;20411;-68
2022/05/29 02:07:47;;;;;;;4.93;3.60;;;;;;;17.18;64.26;100937.47;2115440;28;20418;-68
2022/05/29 02:08:03;;;;;;;5.03;4.00;;;;;;;16.73;64.64;100851.53;2115503;28;20405;-68
2022/05/29 02:09:08;;;;;;;5.40;3.90;;;;;;;16.92;64.97;100897.84;2115963;28;20403;-68
2022/05/29 02:10:09;;;;;;;6.40;3.97;;;;;;;17.10;64.63;100930.63;2115826;28;20403;-68
2022/05/29 02:11:23;;;;;;;6.37;3.80;;;;;;;16.54;64.56;100850.00;2115414;28;20421;-68
2022/05/29 02:12:26;;;;;;;6.70;4.27;;;;;;;16.98;64.82;100922.41;2115693;28;20170;-68
2022/05/29 02:13:34;;;;;;;11.10;4.00;;;;;;;16.94;65.15;100933.75;2115604;28;20416;-68
2022/05/29 02:14:38;;;;;;;10.17;3.97;;;;;;;16.94;65.49;100940.13;2115689;28;20446;-68
2022/05/29 02:16:13;;;;;;;7.43;3.90;;;;;;;16.97;65.67;100927.22;2115885;28;20819;-68
2022/05/29 02:17:24;;;;;;;6.90;3.70;;;;;;;16.99;65.52;100930.31;2097185;28;20433;-68
2022/05/29 02:18:36;;;;;;;4.43;3.93;;;;;;;16.95;65.47;100921.34;2115738;28;20401;-68
2022/05/29 02:19:51;;;;;;;6.73;4.10;;;;;;;16.99;65.47;100924.72;2115661;28;20409;-68
2022/05/29 02:20:56;;;;;;;4.97;3.60;;;;;;;17.01;65.91;100920.22;2115537;28;20464;-68
2022/05/29 02:22:03;;;;;;;8.40;4.30;;;;;;;16.99;65.98;100931.13;2115407;28;20552;-68
2022/05/29 02:23:13;;;;;;;8.93;4.83;;;;;;;16.96;66.27;100931.28;2115854;28;20416;-68
2022/05/29 02:24:18;;;;;;;7.77;4.20;;;;;;;16.95;66.25;100927.69;2115524;28;20922;-68
2022/05/29 02:25:22;;;;;;;6.23;4.00;;;;;;;16.98;65.87;100937.97;2115563;28;20863;-68
2022/05/29 02:26:31;;;;;;;6.10;4.20;;;;;;;16.98;65.96;100932.38;2115631;28;20498;-68
2022/05/29 02:27:44;;;;;;;5.80;4.20;;;;;;;16.99;65.53;100942.31;2115581;28;20405;-68
2022/05/29 02:28:50;;;;;;;7.80;4.10;;;;;;;17.03;65.53;100939.34;2115575;28;20413;-68
2022/05/29 02:29:51;;;;;;;6.37;3.97;;;;;;;17.03;65.76;100954.13;2115576;28;20426;-68
2022/05/29 02:31:24;;;;;;;6.47;4.37;;;;;;;17.03;65.45;100956.94;2115488;28;20921;-68
2022/05/29 02:32:39;;;;;;;6.13;4.03;;;;;;;17.00;65.30;100955.06;2076351;28;20201;-68
2022/05/29 02:33:50;;;;;;;5.93;4.13;;;;;;;16.17;65.15;100839.25;2115522;28;20436;-68
2022/05/29 02:35:10;;;;;;;6.17;4.30;;;;;;;16.90;64.91;100958.34;2115654;28;20400;-68
2022/05/29 02:36:24;;;;;;;4.53;3.90;;;;;;;16.93;64.95;100954.59;2115521;28;20407;-68
2022/05/29 02:37:31;;;;;;;7.03;4.50;;;;;;;16.94;65.23;100958.94;2115549;28;20775;-68
2022/05/29 02:38:48;;;;;;;6.93;4.40;;;;;;;16.90;65.51;100956.31;2115405;28;20429;-68
2022/05/29 02:40:07;;;;;;;6.17;4.30;;;;;;;15.90;65.13;100803.66;2115577;28;20405;-68
2022/05/29 02:41:14;;;;;;;7.03;4.27;;;;;;;16.79;65.38;100942.00;2115471;28;20593;-68
2022/05/29 02:42:36;;;;;;;4.47;4.07;;;;;;;16.77;65.66;100949.31;2115546;28;20496;-68
2022/05/29 02:43:47;;;;;;;5.13;4.20;;;;;;;16.78;65.27;100957.25;2115312;28;20898;-68
2022/05/29 02:45:25;;;;;;;5.10;4.30;;;;;;;16.76;65.10;100951.34;2115436;28;20411;-68
2022/05/29 02:46:38;;;;;;;7.30;4.53;;;;;;;16.78;65.60;100951.66;2115476;28;20924;-68
2022/05/29 02:47:44;;;;;;;5.17;4.27;;;;;;;16.78;65.42;100951.66;2115370;28;20515;-68
2022/05/29 02:49:28;;;;;;;5.23;4.70;;;;;;;16.77;65.43;100938.13;2106361;28;20478;-68
2022/05/29 02:50:41;;;;;;;5.23;4.57;;;;;;;16.76;65.60;100945.72;2103597;28;20467;-68
2022/05/29 02:51:49;;;;;;;6.27;4.30;;;;;;;16.79;65.83;100946.81;2115250;28;20453;-68
2022/05/29 02:52:52;;;;;;;7.30;4.70;;;;;;;16.73;65.91;100955.09;2115318;28;20422;-68
2022/05/29 02:53:52;;;;;;;6.40;4.63;;;;;;;16.80;65.61;100951.97;2115199;28;20399;-68
2022/05/29 02:54:53;;;;;;;6.13;4.70;;;;;;;16.84;65.75;100958.19;2115222;28;20448;-68
2022/05/29 02:55:54;;;;;;;4.93;4.47;;;;;;;16.88;65.49;100962.88;2114537;28;20194;-68
2022/05/29 02:56:56;;;;;;;5.47;4.23;;;;;;;16.88;65.47;100960.81;2106251;28;20166;-68
2022/05/29 02:58:00;;;;;;;8.43;4.67;;;;;;;16.88;65.70;100980.41;2106411;28;20185;-68
2022/05/29 02:59:01;;;;;;;5.33;4.57;;;;;;;16.86;65.81;100974.50;2115273;28;20795;-68
2022/05/29 03:00:13;;;;;;;6.33;4.90;;;;;;;16.24;65.65;100889.28;2115264;28;20507;-68
2022/05/29 03:01:31;;;;;;;12.50;5.40;;;;;;;16.83;65.83;100980.28;2115263;28;20165;-68
2022/05/29 03:03:13;;;;;;;6.50;5.60;;;;;;;16.79;65.62;100984.00;2115269;28;20411;-68
2022/05/29 03:04:47;;;;;;;10.40;5.10;;;;;;;16.72;65.58;100980.72;2105991;28;20436;-68
2022/05/29 03:06:11;;;;;;;7.83;5.80;;;;;;;16.64;65.44;100971.09;2111124;28;20392;-68
2022/05/29 03:07:33;;;;;;;7.03;6.23;;;;;;;16.63;65.37;100957.56;2115516;28;20399;-68
2022/05/29 03:08:59;;;;;;;8.20;6.30;;;;;;;16.58;65.54;100961.75;2115230;28;20787;-68
2022/05/29 03:10:07;;;;;;;7.47;6.60;;;;;;;16.58;65.51;100958.19;2072922;28;20436;-68
2022/05/29 03:11:14;;;;;;;7.93;6.60;;;;;;;16.60;65.88;100951.63;2115170;28;20767;-68
2022/05/29 03:12:24;;;;;;;7.40;6.23;;;;;;;16.59;65.74;100960.53;2115244;28;20415;-68
2022/05/29 03:13:48;;;;;;;9.10;6.73;;;;;;;16.58;65.46;100945.75;2115236;28;20399;-68
2022/05/29 03:15:08;;;;;;;7.93;7.10;;;;;;;16.54;65.55;100931.13;2105969;28;20439;-68
2022/05/29 03:16:17;;;;;;;8.60;6.70;;;;;;;16.30;65.44;100909.78;2109248;28;20437;-68
2022/05/29 03:17:31;;;;;;;8.83;7.10;;;;;;;16.31;66.75;100926.13;2115194;28;20749;-68
2022/05/29 03:18:43;;;;;;;8.63;6.90;;;;;;;16.33;66.88;100925.63;2115315;28;20399;-68
2022/05/29 03:19:53;;;;;;;7.90;7.17;;;;;;;16.36;67.12;100930.31;2115252;28;20900;-68
2022/05/29 03:21:02;;;;;;;10.63;6.93;;;;;;;16.37;67.23;100929.06;2115173;28;20415;-68
2022/05/29 03:22:12;;;;;;;9.80;6.50;;;;;;;16.22;66.85;100919.72;2106031;28;20436;-68
2022/05/29 03:23:29;;;;;;;9.20;7.00;;;;;;;16.31;67.10;100922.53;2107554;28;20500;-68
2022/05/29 03:24:35;;;;;;;9.43;6.87;;;;;;;15.34;67.24;100785.69;2115198;28;20449;-68
2022/05/29 03:25:46;;;;;;;7.70;7.00;;;;;;;16.22;67.18;100909.31;2115132;28;20917;-68
2022/05/29 03:27:01;;;;;;;7.50;6.80;;;;;;;16.18;67.73;100910.72;2115124;28;20399;-68
2022/05/29 03:28:05;;;;;;;7.53;6.83;;;;;;;15.39;67.62;100787.88;2115206;28;20765;-68
2022/05/29 03:29:11;;;;;;;10.50;7.10;;;;;;;15.79;67.78;100861.25;2114975;28;20423;-68
2022/05/29 03:30:23;;;;;;;11.57;7.20;;;;;;;16.11;68.01;100913.78;2115127;28;20926;-68
2022/05/29 03:31:29;;;;;;;13.07;7.03;;;;;;;16.04;68.42;100905.72;2114966;28;20472;-68
2022/05/29 03:32:29;;;;;;;10.67;7.10;;;;;;;15.44;68.29;100810.41;2115030;28;20416;-68
2022/05/29 03:33:30;;;;;;;9.40;6.43;;;;;;;15.89;67.91;100899.91;2114993;28;20995;-68
2022/05/29 03:34:31;;;;;;;8.53;6.63;;;;;;;15.78;67.51;100907.19;2114982;28;20655;-68
2022/05/29 03:35:45;;;;;;;8.93;7.40;;;;;;;15.73;67.90;100905.00;2115034;28;20697;-68
2022/05/29 03:36:47;;;;;;;8.10;7.30;;;;;;;15.84;68.38;100916.53;2105925;28;20170;-68
2022/05/29 03:37:48;;;;;;;10.17;6.67;;;;;;;15.91;68.88;100921.81;2106072;28;20475;-68
2022/05/29 03:38:48;;;;;;;8.33;6.63;;;;;;;15.82;68.97;100905.81;2114992;28;20479;-68
2022/05/29 03:39:49;;;;;;;9.10;7.47;;;;;;;15.98;68.30;100936.28;2115006;28;20466;-68
2022/05/29 03:40:51;;;;;;;9.13;6.87;;;;;;;16.03;68.60;100938.47;2114951;28;20178;-68
2022/05/29 03:41:53;;;;;;;7.80;6.80;;;;;;;16.03;67.99;100943.31;2114981;28;20174;-68
2022/05/29 03:42:55;;;;;;;8.03;6.83;;;;;;;16.05;67.85;100952.00;2105850;28;20474;-68
2022/05/29 03:43:55;;;;;;;7.87;7.00;;;;;;;16.11;67.36;100939.75;2105874;28;20490;-68
2022/05/29 03:44:55;;;;;;;7.83;7.00;;;;;;;16.13;67.22;100950.47;2115032;28;20415;-68
2022/05/29 03:45:56;;;;;;;7.60;6.80;;;;;;;16.16;66.67;100946.72;2115006;28;20662;-68
2022/05/29 03:46:56;;;;;;;7.07;6.37;;;;;;;15.02;66.72;100778.56;2114883;28;20209;-68
2022/05/29 03:47:57;;;;;;;8.33;7.00;;;;;;;16.20;66.39;100947.38;2114981;28;20261;-68
2022/05/29 03:48:58;;;;;;;9.87;6.93;;;;;;;16.02;66.63;100922.94;2114971;28;20190;-68
2022/05/29 03:49:58;;;;;;;11.07;7.03;;;;;;;16.07;66.27;100927.13;2115054;28;20204;-68
2022/05/29 03:51:08;;;;;;;12.57;7.17;;;;;;;16.25;66.71;100946.75;2115005;28;20188;-68
2022/05/29 03:52:08;;;;;;;7.70;6.67;;;;;;;16.27;66.56;100941.47;2114939;28;20165;-68
2022/05/29 03:53:09;;;;;;;8.20;7.13;;;;;;;16.21;66.29;100934.94;2114902;28;20944;-68
2022/05/29 03:54:10;;;;;;;7.73;7.03;;;;;;;16.16;66.33;100925.16;2114840;28;20198;-68
2022/05/29 03:55:12;;;;;;;7.50;6.77;;;;;;;16.01;66.87;100917.81;2114911;28;20180;-68
2022/05/29 03:56:13;;;;;;;8.53;7.30;;;;;;;16.00;67.03;100911.47;2114849;28;21027;-68
2022/05/29 03:57:13;;;;;;;8.80;7.50;;;;;;;15.94;67.01;100906.94;2114888;28;20823;-68
2022/05/29 03:58:14;;;;;;;8.50;7.50;;;;;;;14.85;67.23;100759.75;2114881;28;20176;-68
2022/05/29 03:59:14;;;;;;;13.20;6.90;;;;;;;15.85;67.52;100904.09;2114835;28;20171;-68
2022/05/29 04:00:16;;;;;;;9.33;7.57;;;;;;;15.66;67.47;100894.09;2114817;28;20666;-68
2022/05/29 04:01:16;;;;;;;9.23;7.53;;;;;;;15.75;68.02;100906.09;2114797;28;20177;-68
2022/05/29 04:02:17;;;;;;;7.80;7.00;;;;;;;15.74;67.56;100910.13;2114754;28;20917;-68
2022/05/29 04:03:18;;;;;;;8.07;7.27;;;;;;;15.29;68.03;100848.47;2114750;28;20667;-68
2022/05/29 04:04:18;;;;;;;8.73;7.10;;;;;;;15.63;68.00;100892.25;2114781;28;20592;-68
2022/05/29 04:05:24;;;;;;;9.60;7.27;;;;;;;15.53;67.95;100897.00;2114811;28;20181;-68
2022/05/29 04:06:26;;;;;;;8.03;7.23;;;;;;;15.37;68.33;100865.75;2114802;28;20697;-68
2022/05/29 04:12:43;;;;;;;8.53;7.63;;;;;;;15.48;68.94;100866.13;2114995;28;20428;-68
2022/05/29 04:13:45;;;;;;;9.73;7.80;;;;;;;14.86;69.10;100764.84;2114651;28;20411;-68
2022/05/29 04:14:46;;;;;;;7.83;7.00;;;;;;;14.59;68.62;100725.66;2114692;28;20216;-68
2022/05/29 04:15:46;;;;;;;7.77;6.97;;;;;;;15.69;68.61;100882.81;2114794;28;20418;-68
2022/05/29 04:16:47;;;;;;;8.20;7.40;;;;;;;15.66;68.38;100880.91;2114840;28;20259;-68
2022/05/29 04:17:48;;;;;;;7.73;6.97;;;;;;;15.68;68.20;100874.88;2114738;28;20251;-68
2022/05/29 04:18:48;;;;;;;7.63;6.83;;;;;;;15.72;68.24;100870.69;2105573;28;20183;-68
2022/05/29 04:19:49;;;;;;;7.67;6.53;;;;;;;15.76;67.86;100876.91;2105616;28;20741;-67
2022/05/29 04:20:54;;;;;;;10.17;6.20;;;;;;;15.61;68.08;100861.97;2114541;28;20179;-68
2022/05/29 04:21:55;;;;;;;6.50;5.43;;;;;;;15.81;67.41;100876.31;2114641;28;20229;-68
2022/05/29 04:22:55;;;;;;;7.10;5.80;;;;;;;15.84;67.71;100878.16;2114732;28;20413;-68
2022/05/29 04:23:56;;;;;;;7.87;6.00;;;;;;;15.88;67.21;100887.19;2114498;28;20199;-68
2022/05/29 04:24:56;;;;;;;9.60;6.27;;;;;;;15.91;67.22;100883.47;2105646;28;20210;-68
2022/05/29 04:25:57;;;;;;;6.97;5.63;;;;;;;15.95;67.32;100894.50;2105729;28;20220;-68
2022/05/29 04:26:57;;;;;;;8.20;5.90;;;;;;;15.92;67.45;100887.81;2114830;28;20175;-68
2022/05/29 04:27:58;;;;;;;6.30;5.70;;;;;;;15.27;67.31;100780.38;2114768;28;20216;-68
2022/05/29 04:29:00;;;;;;;6.83;6.23;;;;;;;16.02;67.15;100897.78;2114812;28;20179;-68
2022/05/29 04:30:00;;;;;;;6.43;5.67;;;;;;;16.16;67.01;100910.38;2114544;28;20183;-68
2022/05/29 04:31:01;;;;;;;9.20;6.07;;;;;;;16.26;66.93;100911.97;2114783;28;20934;-68
2022/05/29 04:33:22;;;;;;;7.83;5.80;;;;;;;16.40;67.13;100914.94;2114753;28;20171;-68
2022/05/29 04:34:22;;;;;;;6.40;5.40;;;;;;;16.52;66.78;100904.84;2114663;28;20460;-68
2022/05/29 04:35:23;;;;;;;7.03;4.60;;;;;;;16.61;65.77;100907.66;2114726;28;20981;-68
2022/05/29 04:36:24;;;;;;;6.57;4.93;;;;;;;16.67;65.45;100889.00;2114805;28;20587;-68
2022/05/29 04:37:27;;;;;;;7.13;4.47;;;;;;;16.56;64.95;100880.31;2114717;28;20180;-68
2022/05/29 04:38:28;;;;;;;5.67;4.77;;;;;;;16.42;65.23;100881.72;2105492;28;20184;-68
2022/05/29 04:39:32;;;;;;;6.80;4.67;;;;;;;16.42;64.51;100897.69;2105737;28;20414;-68
2022/05/29 04:40:35;;;;;;;8.63;4.80;;;;;;;16.36;64.68;100893.94;2114353;28;20606;-67
2022/05/29 04:41:35;;;;;;;10.57;4.47;;;;;;;17.32;63.75;100892.00;2114652;28;20415;-68
2022/05/29 04:42:36;;;;;;;6.40;5.10;;;;;;;17.63;63.21;100886.91;2114654;28;20930;-68
2022/05/29 04:43:37;;;;;;;7.33;4.70;;;;;;;17.80;62.30;100876.09;2114643;28;20179;-68
2022/05/29 04:44:37;;;;;;;9.87;4.70;;;;;;;17.86;61.97;100871.38;2114682;28;20201;-68
2022/05/29 04:45:40;;;;;;;5.10;4.60;;;;;;;17.96;61.01;100867.28;2114712;28;20205;-68
2022/05/29 04:46:40;;;;;;;7.67;4.83;;;;;;;18.08;60.34;100885.88;2114594;28;20264;-68
2022/05/29 04:47:41;;;;;;;7.07;4.80;;;;;;;18.02;60.26;100880.13;2114687;28;20412;-68
2022/05/29 04:48:41;;;;;;;5.07;4.30;;;;;;;17.97;59.93;100878.00;2114678;28;20212;-68
2022/05/29 04:49:42;;;;;;;5.27;4.00;;;;;;;18.06;59.74;100880.75;2114691;28;20183;-68
2022/05/29 04:50:43;;;;;;;5.33;4.47;;;;;;;17.49;59.76;100794.38;2114588;28;20236;-68
2022/05/29 04:51:44;;;;;;;6.00;4.73;;;;;;;18.41;59.44;100907.03;2114541;28;20541;-68
2022/05/29 04:52:44;;;;;;;7.27;4.93;;;;;;;18.61;59.46;100909.19;2114800;28;20178;-68
2022/05/29 04:53:45;;;;;;;5.83;4.63;;;;;;;18.68;59.08;100908.84;2114601;28;20185;-68
2022/05/29 04:54:45;;;;;;;7.70;4.40;;;;;;;18.44;59.19;100854.78;2114664;28;20172;-68
2022/05/29 04:55:46;;;;;;;7.23;4.70;;;;;;;18.64;58.96;100866.16;2114768;28;20571;-68
2022/05/29 04:56:47;;;;;;;4.33;3.37;;;;;;;19.06;58.58;100914.41;2114687;28;20656;-68
2022/05/29 04:57:48;;;;;;;5.77;3.90;;;;;;;19.04;58.12;100891.66;2114699;28;20169;-68
2022/05/29 04:58:48;;;;;;;5.93;3.57;;;;;;;19.25;57.88;100916.56;2114732;28;20441;-68
2022/05/29 04:59:49;;;;;;;4.70;3.47;;;;;;;18.84;56.80;100813.69;2114693;28;20196;-68
2022/05/29 05:00:49;;;;;;;3.50;2.90;;;;;;;19.08;56.16;100869.78;2114693;28;20652;-68
2022/05/29 05:01:50;;;;;;;4.53;3.03;;;;;;;19.71;55.61;100899.97;2114650;28;20196;-68
2022/05/29 05:02:50;;;;;;;4.10;2.47;;;;;;;18.82;55.82;100908.88;2114612;28;20262;-68
2022/05/29 05:03:51;;;;;;;3.50;2.33;;;;;;;18.48;56.01;100912.25;2114566;28;20616;-68
2022/05/29 05:04:52;;;;;;;4.40;2.30;;;;;;;18.49;55.96;100919.44;2114864;28;20180;-68
2022/05/29 05:05:53;;;;;;;3.93;2.67;;;;;;;18.39;56.63;100908.75;2114587;28;20178;-68
2022/05/29 05:06:55;;;;;;;3.10;2.13;;;;;;;18.46;56.94;100914.00;2114602;28;20508;-68
2022/05/29 05:07:56;;;;;;;2.83;2.00;;;;;;;18.19;56.44;100847.63;2114699;28;20171;-68
2022/05/29 05:08:57;;;;;;;3.50;2.10;;;;;;;17.67;55.48;100761.41;2114642;28;20924;-68
2022/05/29 05:09:57;;;;;;;4.73;1.97;;;;;;;17.76;55.40;100774.56;2114590;28;20282;-68
2022/05/29 05:10:57;;;;;;;2.50;1.90;;;;;;;18.59;55.45;100898.47;2114642;28;20175;-68
2022/05/29 05:11:58;;;;;;;6.80;2.10;;;;;;;18.74;55.50;100910.50;2114557;28;20225;-68
2022/05/29 05:12:59;;;;;;;3.77;2.40;;;;;;;18.63;55.29;100885.00;2114591;28;20174;-68
2022/05/29 05:13:59;;;;;;;3.53;2.00;;;;;;;18.89;55.68;100916.16;2114557;28;20640;-68
2022/05/29 05:15:00;;;;;;;6.07;2.13;;;;;;;18.94;55.63;100916.22;2114612;28;20702;-68
2022/05/29 05:16:05;;;;;;;4.23;2.40;;;;;;;19.02;55.43;100913.81;2114748;28;20201;-68
2022/05/29 05:17:05;;;;;;;7.10;2.33;;;;;;;18.45;55.48;100809.41;2114708;28;20728;-68